Radium Springs, New Mexico
Current Conditions -  °F | °C
As of 10:15 AM on Thursday 18 Dec 2014 (Local Time) from KLRU Reporting Station
Broken Clouds Broken Clouds  
Wind Chill: 50°   Ceiling: 6000
Heat Index: 50°   Visibility: 10mi
Dew Point: 33°   Wind: 0mph
Humidity: 52%   Direction: NA
Pressure: 30.16"   Gusts: NA
Location:  32.5°N, 106.93°W
Report Text: KLRU 181715Z AUTO 00000KT 10SM BKN060 10/00 A3016 RMK AO2 T00980003
Loading
Personal Weather Stations






























Interactive Weather Map New forecast layout! Learn more

10-Day Weather Forecast

Advertisements
Track Severe Weather on mobile